Time;durP1;ratioP1;P1;durP2;ratioP2;P2;SDS_P1;SDS_P2;PMS_P1;PMS_P2;Temp;Humidity;BMP_temperature;BMP_pressure;BME280_temperature;BME280_humidity;BME280_pressure;Samples;Min_cycle;Max_cycle;Signal;HPM_P1;HPM_P2
2022/11/26 00:02:16;;;;;;;12.27;7.63;;;;;;;;;;5070136;28;20444;-77
2022/11/26 00:04:44;;;;;;;12.10;8.50;;;;;;;;;;5068907;28;21053;-77
2022/11/26 00:07:12;;;;;;;10.47;7.47;;;;;;;;;;5069600;28;20452;-77
2022/11/26 00:09:40;;;;;;;12.33;8.27;;;;;;;;;;5069469;28;21084;-77
2022/11/26 00:12:14;;;;;;;11.43;7.90;;;;;;;;;;5069818;28;20829;-76
2022/11/26 00:14:41;;;;;;;9.93;8.30;;;;;;;;;;5070378;28;20975;-77
2022/11/26 00:17:09;;;;;;;15.50;8.10;;;;;;;;;;5070608;28;20444;-76
2022/11/26 00:19:36;;;;;;;11.20;8.27;;;;;;;;;;5070976;28;20448;-77
2022/11/26 00:22:04;;;;;;;11.13;7.73;;;;;;;;;;5069806;28;20461;-76
2022/11/26 00:24:31;;;;;;;10.40;8.40;;;;;;;;;;5068630;28;20482;-76
2022/11/26 00:27:00;;;;;;;12.20;7.73;;;;;;;;;;5070097;28;20456;-77
2022/11/26 00:29:27;;;;;;;14.23;8.00;;;;;;;;;;5069998;28;20442;-77
2022/11/26 00:31:54;;;;;;;11.00;7.63;;;;;;;;;;5073515;28;20445;-77
2022/11/26 00:34:21;;;;;;;10.27;7.33;;;;;;;;;;5072256;28;20986;-76
2022/11/26 00:36:48;;;;;;;14.20;8.43;;;;;;;;;;5072952;28;20452;-78
2022/11/26 00:39:18;;;;;;;9.80;7.53;;;;;;;;;;5073136;28;20460;-77
2022/11/26 00:41:46;;;;;;;10.23;7.57;;;;;;;;;;5073256;28;20453;-78
2022/11/26 00:44:17;;;;;;;12.20;7.93;;;;;;;;;;5072303;28;20861;-76
2022/11/26 00:46:44;;;;;;;11.27;8.23;;;;;;;;;;5073084;28;20444;-76
2022/11/26 00:49:11;;;;;;;11.63;8.23;;;;;;;;;;5072998;28;21045;-76
2022/11/26 00:51:38;;;;;;;11.87;8.30;;;;;;;;;;5072845;28;20455;-76
2022/11/26 00:54:06;;;;;;;11.50;8.20;;;;;;;;;;5072438;28;20457;-76
2022/11/26 00:56:34;;;;;;;12.90;8.10;;;;;;;;;;5072639;28;20803;-76
2022/11/26 00:59:01;;;;;;;13.13;7.97;;;;;;;;;;5072540;28;20457;-76
2022/11/26 01:01:29;;;;;;;10.97;7.70;;;;;;;;;;5072555;28;20442;-77
2022/11/26 01:03:57;;;;;;;13.10;8.43;;;;;;;;;;5072178;28;20482;-76
2022/11/26 01:06:26;;;;;;;11.60;7.27;;;;;;;;;;5073344;28;20492;-77
2022/11/26 01:08:54;;;;;;;13.03;7.80;;;;;;;;;;5073588;28;20895;-76
2022/11/26 01:11:22;;;;;;;11.33;9.00;;;;;;;;;;5073083;28;20470;-77
2022/11/26 01:13:51;;;;;;;14.33;9.47;;;;;;;;;;5072580;28;20456;-76
2022/11/26 01:16:20;;;;;;;10.57;8.60;;;;;;;;;;5072856;28;20445;-77
2022/11/26 01:18:48;;;;;;;9.50;7.23;;;;;;;;;;5074930;28;20456;-77
2022/11/26 01:21:15;;;;;;;9.70;7.53;;;;;;;;;;5072938;28;20448;-76
2022/11/26 01:23:42;;;;;;;12.90;7.67;;;;;;;;;;5072900;28;20444;-76
2022/11/26 01:26:15;;;;;;;12.90;8.00;;;;;;;;;;5074174;28;20484;-76
2022/11/26 01:28:42;;;;;;;12.70;6.83;;;;;;;;;;5077294;28;20452;-76
2022/11/26 01:31:12;;;;;;;11.10;7.27;;;;;;;;;;5076172;28;20445;-76
2022/11/26 01:33:40;;;;;;;9.80;7.17;;;;;;;;;;5073990;28;20459;-76
2022/11/26 01:36:13;;;;;;;13.10;7.97;;;;;;;;;;5073169;28;20924;-77
2022/11/26 01:38:40;;;;;;;9.60;7.03;;;;;;;;;;5074979;28;20437;-76
2022/11/26 01:41:12;;;;;;;14.60;8.40;;;;;;;;;;5076308;28;20929;-77
2022/11/26 01:43:41;;;;;;;10.90;7.10;;;;;;;;;;5084726;28;20427;-76
2022/11/26 01:46:13;;;;;;;11.17;7.30;;;;;;;;;;5078366;28;20477;-77
2022/11/26 01:48:42;;;;;;;9.07;7.30;;;;;;;;;;5071925;28;20440;-75
2022/11/26 01:51:10;;;;;;;12.73;8.00;;;;;;;;;;5072511;28;20442;-77
2022/11/26 01:53:48;;;;;;;11.23;7.30;;;;;;;;;;5071388;28;20450;-77
2022/11/26 01:56:18;;;;;;;9.80;8.37;;;;;;;;;;5078276;28;20472;-77
2022/11/26 01:58:47;;;;;;;13.87;8.30;;;;;;;;;;5079330;28;20446;-77
2022/11/26 02:01:14;;;;;;;11.20;7.13;;;;;;;;;;5075906;28;20530;-77
2022/11/26 02:03:44;;;;;;;13.70;7.97;;;;;;;;;;5084374;28;20828;-77
2022/11/26 02:06:14;;;;;;;20.67;13.60;;;;;;;;;;5079744;28;20572;-77
2022/11/26 02:08:41;;;;;;;15.60;12.27;;;;;;;;;;5072023;28;20474;-76
2022/11/26 02:11:16;;;;;;;9.57;8.67;;;;;;;;;;5071812;28;20530;-77
2022/11/26 02:13:43;;;;;;;10.10;7.47;;;;;;;;;;5070720;28;20447;-77
2022/11/26 02:16:13;;;;;;;8.17;6.77;;;;;;;;;;5071973;28;20921;-76
2022/11/26 02:18:42;;;;;;;15.37;7.47;;;;;;;;;;5071346;28;20446;-77
2022/11/26 02:21:14;;;;;;;12.60;7.80;;;;;;;;;;5071053;28;20529;-76
2022/11/26 02:23:59;;;;;;;9.20;7.40;;;;;;;;;;5070663;28;20435;-77
2022/11/26 02:26:34;;;;;;;15.00;7.43;;;;;;;;;;5071183;28;20460;-77
2022/11/26 02:29:04;;;;;;;11.70;7.43;;;;;;;;;;5071969;28;20442;-76
2022/11/26 02:31:36;;;;;;;11.43;7.90;;;;;;;;;;5070578;28;20932;-76
2022/11/26 02:34:06;;;;;;;9.90;6.97;;;;;;;;;;5069671;28;20465;-77
2022/11/26 02:36:36;;;;;;;9.80;7.53;;;;;;;;;;5070711;28;20431;-75
2022/11/26 02:39:11;;;;;;;11.63;6.80;;;;;;;;;;5070807;28;20457;-76
2022/11/26 02:41:42;;;;;;;10.77;6.80;;;;;;;;;;5070875;28;21005;-76
2022/11/26 02:44:09;;;;;;;9.47;6.80;;;;;;;;;;5070071;28;20465;-77
2022/11/26 02:46:38;;;;;;;11.63;7.83;;;;;;;;;;5070605;28;20486;-77
2022/11/26 02:49:05;;;;;;;9.23;7.23;;;;;;;;;;5070933;28;20440;-77
2022/11/26 02:51:32;;;;;;;10.40;6.60;;;;;;;;;;5070609;28;20441;-76
2022/11/26 02:54:00;;;;;;;10.93;7.47;;;;;;;;;;5069720;28;20465;-76
2022/11/26 02:56:28;;;;;;;15.33;7.23;;;;;;;;;;5070489;28;20440;-77
2022/11/26 02:58:55;;;;;;;9.77;6.57;;;;;;;;;;5070299;28;20449;-77
2022/11/26 03:01:28;;;;;;;10.20;7.40;;;;;;;;;;5070582;28;20439;-76
2022/11/26 03:03:58;;;;;;;8.00;7.20;;;;;;;;;;5069548;28;20552;-77
2022/11/26 03:06:26;;;;;;;12.00;7.03;;;;;;;;;;5070210;28;20512;-75
2022/11/26 03:08:54;;;;;;;11.10;6.53;;;;;;;;;;5070492;28;20440;-77
2022/11/26 03:11:21;;;;;;;8.67;6.73;;;;;;;;;;5070491;28;20535;-76
2022/11/26 03:13:49;;;;;;;7.47;6.60;;;;;;;;;;5069965;28;20465;-77
2022/11/26 03:16:16;;;;;;;11.87;6.63;;;;;;;;;;5071419;28;20482;-77
2022/11/26 03:18:43;;;;;;;13.43;7.50;;;;;;;;;;5070864;28;20449;-77
2022/11/26 03:21:11;;;;;;;8.50;7.17;;;;;;;;;;5070490;28;20449;-76
2022/11/26 03:23:38;;;;;;;12.90;7.63;;;;;;;;;;5071153;28;20449;-77
2022/11/26 03:26:05;;;;;;;13.07;7.10;;;;;;;;;;5071436;28;20479;-76
2022/11/26 03:28:33;;;;;;;9.00;7.23;;;;;;;;;;5071393;28;20989;-77
2022/11/26 03:31:00;;;;;;;9.30;5.77;;;;;;;;;;5071049;28;20437;-76
2022/11/26 03:33:27;;;;;;;7.77;7.07;;;;;;;;;;5070055;28;20457;-77
2022/11/26 03:35:54;;;;;;;7.70;6.17;;;;;;;;;;5072106;28;20446;-77
2022/11/26 03:38:23;;;;;;;9.20;6.80;;;;;;;;;;5070073;28;20440;-77
2022/11/26 03:40:56;;;;;;;11.47;6.43;;;;;;;;;;5070393;28;20442;-76
2022/11/26 03:43:23;;;;;;;19.03;7.27;;;;;;;;;;5069618;28;20428;-76
2022/11/26 03:45:50;;;;;;;10.40;7.07;;;;;;;;;;5069901;28;20517;-77
2022/11/26 03:48:17;;;;;;;10.00;7.70;;;;;;;;;;5070034;28;20449;-76
2022/11/26 03:50:44;;;;;;;12.80;7.90;;;;;;;;;;5069879;28;20440;-76
2022/11/26 03:53:11;;;;;;;12.17;8.10;;;;;;;;;;5068841;28;20467;-75
2022/11/26 03:55:40;;;;;;;13.37;8.43;;;;;;;;;;5069599;28;20459;-76
2022/11/26 03:58:07;;;;;;;9.37;7.40;;;;;;;;;;5069536;28;20448;-76
2022/11/26 04:00:34;;;;;;;8.63;7.47;;;;;;;;;;5070048;28;20441;-77
2022/11/26 04:03:01;;;;;;;9.50;7.37;;;;;;;;;;5069234;28;20492;-76
2022/11/26 04:05:28;;;;;;;8.47;7.67;;;;;;;;;;5071124;28;20494;-77
2022/11/26 04:07:55;;;;;;;10.57;7.73;;;;;;;;;;5074016;28;20443;-77
2022/11/26 04:10:22;;;;;;;12.30;8.10;;;;;;;;;;5073549;28;20445;-76
2022/11/26 04:12:50;;;;;;;10.83;7.50;;;;;;;;;;5071286;28;20456;-77
2022/11/26 04:15:17;;;;;;;9.87;7.00;;;;;;;;;;5053444;28;20462;-77
2022/11/26 04:17:44;;;;;;;10.23;7.50;;;;;;;;;;5053422;28;20472;-76
2022/11/26 04:20:12;;;;;;;14.37;7.57;;;;;;;;;;5053161;28;20467;-77
2022/11/26 04:22:39;;;;;;;11.13;7.27;;;;;;;;;;5052725;28;20456;-76
2022/11/26 04:25:06;;;;;;;8.37;7.50;;;;;;;;;;5052703;28;20466;-77
2022/11/26 04:27:33;;;;;;;11.47;7.17;;;;;;;;;;5052815;28;20786;-77
2022/11/26 04:30:02;;;;;;;8.13;6.87;;;;;;;;;;5052737;28;20458;-78
2022/11/26 04:32:29;;;;;;;9.87;7.70;;;;;;;;;;5053086;28;20528;-77
2022/11/26 04:34:58;;;;;;;8.70;7.10;;;;;;;;;;5053177;28;20473;-76
2022/11/26 04:37:25;;;;;;;13.50;6.70;;;;;;;;;;5053848;28;20449;-77
2022/11/26 04:39:52;;;;;;;9.67;7.43;;;;;;;;;;5053034;28;20450;-76
2022/11/26 04:42:20;;;;;;;12.83;7.90;;;;;;;;;;5053064;28;20450;-76
2022/11/26 04:44:47;;;;;;;12.50;6.90;;;;;;;;;;5052282;28;20461;-77
2022/11/26 04:47:15;;;;;;;9.33;6.70;;;;;;;;;;5052907;28;20479;-77
2022/11/26 04:49:42;;;;;;;9.73;6.37;;;;;;;;;;5055047;28;20508;-76
2022/11/26 04:52:09;;;;;;;10.30;5.83;;;;;;;;;;5055664;28;20442;-76
2022/11/26 04:54:36;;;;;;;7.27;5.83;;;;;;;;;;5054988;28;20497;-77
2022/11/26 04:57:04;;;;;;;6.30;5.70;;;;;;;;;;5054546;28;20437;-77
2022/11/26 04:59:31;;;;;;;11.57;6.07;;;;;;;;;;5052680;28;20441;-77
2022/11/26 05:01:59;;;;;;;10.53;6.00;;;;;;;;;;5052985;28;20896;-76
2022/11/26 05:04:27;;;;;;;9.03;5.97;;;;;;;;;;5052094;28;20499;-77
2022/11/26 05:06:54;;;;;;;8.43;6.73;;;;;;;;;;5052388;28;20492;-77
2022/11/26 05:09:22;;;;;;;11.17;6.10;;;;;;;;;;5052510;28;20797;-76
2022/11/26 05:11:49;;;;;;;10.13;5.63;;;;;;;;;;5052714;28;20443;-77
2022/11/26 05:14:16;;;;;;;11.47;5.83;;;;;;;;;;5052082;28;20827;-77
2022/11/26 05:16:43;;;;;;;10.80;5.90;;;;;;;;;;5069298;28;20447;-77
2022/11/26 05:19:10;;;;;;;12.87;6.33;;;;;;;;;;5072517;28;20453;-76
2022/11/26 05:21:38;;;;;;;7.37;5.30;;;;;;;;;;5073030;28;20526;-77
2022/11/26 05:24:06;;;;;;;9.23;5.00;;;;;;;;;;5055813;28;20467;-76
2022/11/26 05:26:33;;;;;;;9.70;5.30;;;;;;;;;;5072630;28;20482;-76
2022/11/26 05:29:00;;;;;;;6.03;5.47;;;;;;;;;;5072284;28;20448;-76
2022/11/26 05:31:27;;;;;;;8.97;6.03;;;;;;;;;;5072220;28;20448;-77
2022/11/26 05:33:54;;;;;;;5.83;5.20;;;;;;;;;;5071191;28;20477;-77
2022/11/26 05:36:21;;;;;;;10.57;5.80;;;;;;;;;;5071773;28;20454;-76
2022/11/26 05:38:50;;;;;;;8.17;5.30;;;;;;;;;;5072032;28;20446;-76
2022/11/26 05:41:17;;;;;;;12.77;9.90;;;;;;;;;;5072002;28;20453;-76
2022/11/26 05:43:44;;;;;;;12.17;8.87;;;;;;;;;;5063075;28;20476;-77
2022/11/26 05:46:11;;;;;;;10.70;6.50;;;;;;;;;;5062908;28;21122;-77
2022/11/26 05:48:38;;;;;;;7.70;6.40;;;;;;;;;;5068677;28;20441;-76
2022/11/26 05:51:06;;;;;;;12.10;5.70;;;;;;;;;;5072967;28;20441;-76
2022/11/26 05:53:33;;;;;;;6.80;5.83;;;;;;;;;;5077677;28;20444;-76
2022/11/26 05:56:01;;;;;;;7.57;5.93;;;;;;;;;;5078106;28;20456;-76
2022/11/26 05:58:28;;;;;;;7.77;6.60;;;;;;;;;;5078713;28;20457;-76
2022/11/26 06:00:55;;;;;;;9.17;6.17;;;;;;;;;;5071203;28;20475;-76
2022/11/26 06:03:22;;;;;;;7.73;6.70;;;;;;;;;;5070352;28;20821;-77
2022/11/26 06:05:49;;;;;;;12.70;7.43;;;;;;;;;;5069316;28;20992;-76
2022/11/26 06:08:17;;;;;;;14.63;7.20;;;;;;;;;;5071261;28;20938;-77
2022/11/26 06:10:44;;;;;;;15.27;13.47;;;;;;;;;;5071568;28;20728;-77
2022/11/26 06:13:13;;;;;;;10.80;9.13;;;;;;;;;;5070630;28;20441;-76
2022/11/26 06:15:40;;;;;;;13.43;7.83;;;;;;;;;;5071227;28;20457;-76
2022/11/26 06:18:07;;;;;;;9.73;7.27;;;;;;;;;;5071365;28;20447;-77
2022/11/26 06:20:34;;;;;;;9.23;6.83;;;;;;;;;;5071643;28;20448;-76
2022/11/26 06:23:01;;;;;;;12.07;8.37;;;;;;;;;;5051383;28;20454;-76
2022/11/26 06:25:28;;;;;;;10.17;7.73;;;;;;;;;;5051479;28;20462;-77
2022/11/26 06:27:55;;;;;;;13.57;8.53;;;;;;;;;;5050071;28;20444;-76
2022/11/26 06:30:24;;;;;;;14.10;8.23;;;;;;;;;;5050788;28;20442;-76
2022/11/26 06:32:51;;;;;;;13.20;8.60;;;;;;;;;;5050178;28;20448;-77
2022/11/26 06:35:18;;;;;;;15.60;8.57;;;;;;;;;;5051129;28;20826;-78
2022/11/26 06:37:45;;;;;;;11.90;8.30;;;;;;;;;;5062565;28;20856;-78
2022/11/26 06:40:17;;;;;;;8.77;7.97;;;;;;;;;;5071053;28;20936;-77
2022/11/26 06:42:47;;;;;;;12.50;7.97;;;;;;;;;;5069889;28;20718;-78
2022/11/26 06:45:15;;;;;;;12.50;8.00;;;;;;;;;;5070821;28;20465;-78
2022/11/26 06:47:43;;;;;;;15.83;9.97;;;;;;;;;;5070610;28;20481;-77
2022/11/26 06:50:10;;;;;;;12.03;8.77;;;;;;;;;;5070340;28;20446;-77
2022/11/26 06:52:37;;;;;;;13.37;8.80;;;;;;;;;;5070445;28;20437;-76
2022/11/26 06:55:05;;;;;;;11.60;7.90;;;;;;;;;;5069803;28;20526;-76
2022/11/26 06:57:32;;;;;;;12.50;8.70;;;;;;;;;;5070217;28;20519;-77
2022/11/26 06:59:59;;;;;;;9.07;7.47;;;;;;;;;;5070258;28;20440;-76
2022/11/26 07:02:26;;;;;;;9.60;7.63;;;;;;;;;;5070229;28;20812;-76
2022/11/26 07:04:54;;;;;;;13.57;7.73;;;;;;;;;;5069787;28;20827;-76
2022/11/26 07:07:21;;;;;;;9.67;7.93;;;;;;;;;;5070600;28;20484;-76
2022/11/26 07:09:48;;;;;;;8.50;7.60;;;;;;;;;;5070053;28;20808;-76
2022/11/26 07:12:15;;;;;;;10.50;7.10;;;;;;;;;;5066524;28;20448;-77
2022/11/26 07:14:43;;;;;;;15.33;11.77;;;;;;;;;;5069303;28;20476;-76
2022/11/26 07:17:10;;;;;;;13.90;11.10;;;;;;;;;;5070896;28;20861;-77
2022/11/26 07:19:37;;;;;;;12.10;8.20;;;;;;;;;;5070276;28;20822;-77
2022/11/26 07:22:05;;;;;;;14.23;7.10;;;;;;;;;;5070239;28;20455;-76
2022/11/26 07:24:32;;;;;;;12.00;7.17;;;;;;;;;;5071014;28;20476;-77
2022/11/26 07:27:00;;;;;;;13.97;8.40;;;;;;;;;;5072661;28;20483;-77
2022/11/26 07:29:27;;;;;;;9.87;7.03;;;;;;;;;;5071124;28;20440;-76
2022/11/26 07:31:54;;;;;;;10.60;7.67;;;;;;;;;;5070485;28;20452;-76
2022/11/26 07:34:21;;;;;;;11.67;6.60;;;;;;;;;;5069734;28;21004;-76
2022/11/26 07:36:48;;;;;;;13.20;7.70;;;;;;;;;;5066826;28;20437;-75
2022/11/26 07:39:16;;;;;;;10.20;7.80;;;;;;;;;;5074444;28;20447;-76
2022/11/26 07:41:43;;;;;;;16.40;8.20;;;;;;;;;;5083289;28;20452;-78
2022/11/26 07:44:12;;;;;;;8.37;7.50;;;;;;;;;;5076167;28;20460;-77
2022/11/26 07:46:39;;;;;;;15.10;8.67;;;;;;;;;;5078506;28;20857;-78
2022/11/26 07:49:06;;;;;;;14.97;8.40;;;;;;;;;;5076950;28;20459;-77
2022/11/26 07:51:35;;;;;;;10.63;7.50;;;;;;;;;;5074801;28;20544;-76
2022/11/26 07:54:04;;;;;;;10.70;7.93;;;;;;;;;;5073803;28;20467;-77
2022/11/26 07:56:32;;;;;;;14.03;8.00;;;;;;;;;;5073237;28;20436;-77
2022/11/26 07:58:59;;;;;;;14.97;9.17;;;;;;;;;;5072994;28;20444;-76
2022/11/26 08:01:28;;;;;;;15.20;10.17;;;;;;;;;;5068373;28;20472;-76
2022/11/26 08:03:56;;;;;;;10.17;8.73;;;;;;;;;;5070704;28;20471;-78
2022/11/26 08:06:23;;;;;;;9.87;7.47;;;;;;;;;;5071059;28;20488;-76
2022/11/26 08:08:51;;;;;;;9.70;8.27;;;;;;;;;;5071813;28;20970;-76
2022/11/26 08:11:19;;;;;;;10.50;7.90;;;;;;;;;;5071424;28;21011;-77
2022/11/26 08:13:47;;;;;;;10.27;8.40;;;;;;;;;;5070759;28;21827;-76
2022/11/26 08:16:15;;;;;;;11.17;7.83;;;;;;;;;;5073185;28;20539;-77
2022/11/26 08:18:42;;;;;;;9.33;8.33;;;;;;;;;;5073401;28;20441;-76
2022/11/26 08:21:10;;;;;;;12.37;8.77;;;;;;;;;;5072941;28;20732;-77
2022/11/26 08:23:37;;;;;;;11.50;8.40;;;;;;;;;;5072375;28;20440;-77
2022/11/26 08:26:07;;;;;;;66.00;49.63;;;;;;;;;;5073359;28;20457;-77
2022/11/26 08:28:34;;;;;;;23.10;18.63;;;;;;;;;;5073336;28;20450;-75
2022/11/26 08:31:04;;;;;;;13.63;9.27;;;;;;;;;;5073035;28;21032;-75
2022/11/26 08:33:31;;;;;;;19.67;15.87;;;;;;;;;;5072926;28;20936;-76
2022/11/26 08:35:58;;;;;;;15.50;12.10;;;;;;;;;;5072992;28;20445;-76
2022/11/26 08:38:25;;;;;;;9.83;8.80;;;;;;;;;;5072603;28;20444;-77
2022/11/26 08:40:53;;;;;;;10.40;9.33;;;;;;;;;;5072943;28;20493;-77
2022/11/26 08:43:20;;;;;;;9.73;8.73;;;;;;;;;;5072132;28;20441;-77
2022/11/26 08:45:52;;;;;;;12.20;10.27;;;;;;;;;;5072801;28;20787;-76
2022/11/26 08:48:20;;;;;;;10.77;8.67;;;;;;;;;;5073198;28;20470;-77
2022/11/26 08:50:47;;;;;;;12.27;9.70;;;;;;;;;;5072405;28;20445;-76
2022/11/26 08:53:14;;;;;;;12.50;9.23;;;;;;;;;;5072533;28;20442;-76
2022/11/26 08:55:41;;;;;;;10.57;8.60;;;;;;;;;;5072609;28;20472;-77
2022/11/26 08:58:08;;;;;;;10.37;9.30;;;;;;;;;;5072764;28;20449;-77
2022/11/26 09:00:36;;;;;;;11.40;8.93;;;;;;;;;;5072634;28;20443;-76
2022/11/26 09:03:03;;;;;;;15.50;8.50;;;;;;;;;;5071599;28;20824;-76
2022/11/26 09:05:32;;;;;;;13.73;10.20;;;;;;;;;;5072401;28;20473;-77
2022/11/26 09:07:59;;;;;;;14.40;12.90;;;;;;;;;;5072136;28;20484;-77
2022/11/26 09:10:26;;;;;;;33.90;29.07;;;;;;;;;;5072171;28;20440;-77
2022/11/26 09:12:53;;;;;;;68.63;62.60;;;;;;;;;;5071975;28;20452;-76
2022/11/26 09:15:20;;;;;;;29.60;26.90;;;;;;;;;;5072426;28;20482;-75
2022/11/26 09:17:47;;;;;;;13.83;12.30;;;;;;;;;;5072174;28;20460;-76
2022/11/26 09:20:14;;;;;;;9.43;8.50;;;;;;;;;;5072349;28;20445;-76
2022/11/26 09:22:43;;;;;;;9.97;8.50;;;;;;;;;;5071625;28;20441;-77
2022/11/26 09:25:10;;;;;;;10.67;7.80;;;;;;;;;;5072141;28;20471;-77
2022/11/26 09:27:37;;;;;;;9.13;7.90;;;;;;;;;;5072513;28;20555;-77
2022/11/26 09:30:05;;;;;;;9.20;7.60;;;;;;;;;;5073144;28;20456;-76
2022/11/26 09:32:33;;;;;;;11.57;7.20;;;;;;;;;;5077618;28;20452;-76
2022/11/26 09:35:00;;;;;;;8.87;7.60;;;;;;;;;;5078269;28;20500;-78
2022/11/26 09:37:27;;;;;;;11.10;8.30;;;;;;;;;;5081642;28;20443;-76
2022/11/26 09:39:55;;;;;;;9.00;8.07;;;;;;;;;;5078560;28;20448;-77
2022/11/26 09:42:28;;;;;;;9.43;7.57;;;;;;;;;;5085769;28;20451;-76
2022/11/26 09:45:04;;;;;;;10.53;7.30;;;;;;;;;;5087357;28;20467;-76
2022/11/26 09:47:35;;;;;;;9.67;7.50;;;;;;;;;;5089363;28;20476;-76
2022/11/26 09:50:07;;;;;;;14.73;13.13;;;;;;;;;;5089897;28;20535;-77
2022/11/26 09:52:35;;;;;;;10.57;7.87;;;;;;;;;;5075674;28;20456;-77
2022/11/26 09:55:07;;;;;;;10.07;6.93;;;;;;;;;;5071229;28;20467;-77
2022/11/26 09:57:36;;;;;;;8.97;6.80;;;;;;;;;;5071350;28;21047;-76
2022/11/26 10:00:05;;;;;;;12.63;7.17;;;;;;;;;;5071387;28;20466;-77
2022/11/26 10:02:32;;;;;;;7.50;6.17;;;;;;;;;;5071189;28;20555;-76
2022/11/26 10:04:59;;;;;;;10.90;6.30;;;;;;;;;;5074180;28;20469;-76
2022/11/26 10:07:47;;;;;;;10.07;6.57;;;;;;;;;;5084689;28;20484;-77
2022/11/26 10:10:19;;;;;;;10.10;6.40;;;;;;;;;;5092822;28;20436;-77
2022/11/26 10:12:53;;;;;;;10.67;6.00;;;;;;;;;;5077473;28;20441;-77
2022/11/26 10:15:24;;;;;;;7.03;5.73;;;;;;;;;;5072471;28;20498;-76
2022/11/26 10:17:53;;;;;;;12.53;11.30;;;;;;;;;;5075631;28;20460;-76
2022/11/26 10:20:43;;;;;;;9.20;8.13;;;;;;;;;;5078948;28;20437;-77
2022/11/26 10:23:16;;;;;;;11.83;8.97;;;;;;;;;;5071597;28;20437;-77
2022/11/26 10:25:46;;;;;;;12.37;8.13;;;;;;;;;;5071925;28;20463;-76
2022/11/26 10:28:16;;;;;;;10.70;6.43;;;;;;;;;;5072162;28;20489;-76
2022/11/26 10:30:44;;;;;;;8.13;6.30;;;;;;;;;;5074110;28;20452;-76
2022/11/26 10:33:13;;;;;;;6.73;6.03;;;;;;;;;;5078561;28;20466;-77
2022/11/26 10:35:42;;;;;;;10.00;6.33;;;;;;;;;;5079819;28;20460;-76
2022/11/26 10:38:11;;;;;;;12.70;8.90;;;;;;;;;;5080901;28;20441;-77
2022/11/26 10:40:38;;;;;;;10.13;7.73;;;;;;;;;;5076545;28;20440;-76
2022/11/26 10:43:12;;;;;;;13.37;7.20;;;;;;;;;;5080268;28;20463;-76
2022/11/26 10:45:40;;;;;;;8.90;7.03;;;;;;;;;;5077626;28;20490;-77
2022/11/26 10:48:31;;;;;;;13.97;7.77;;;;;;;;;;5076346;28;20468;-76
2022/11/26 10:51:03;;;;;;;9.00;6.97;;;;;;;;;;5056082;28;20445;-78
2022/11/26 10:53:31;;;;;;;12.00;6.90;;;;;;;;;;5071059;28;20447;-76
2022/11/26 10:55:59;;;;;;;8.40;4.93;;;;;;;;;;5071017;28;20936;-76
2022/11/26 10:58:29;;;;;;;7.73;5.67;;;;;;;;;;5070810;28;20433;-76
2022/11/26 11:00:58;;;;;;;10.83;6.87;;;;;;;;;;5070749;28;20468;-77
2022/11/26 11:03:27;;;;;;;10.23;7.00;;;;;;;;;;5070606;28;20553;-76
2022/11/26 11:06:10;;;;;;;11.87;6.73;;;;;;;;;;5070268;28;20834;-76
2022/11/26 11:08:37;;;;;;;8.13;6.10;;;;;;;;;;5070549;28;20484;-76
2022/11/26 11:11:05;;;;;;;9.80;6.73;;;;;;;;;;5070622;28;20449;-77
2022/11/26 11:13:43;;;;;;;7.50;5.67;;;;;;;;;;5061754;28;20507;-77
2022/11/26 11:16:11;;;;;;;7.90;4.83;;;;;;;;;;5050456;28;20449;-77
2022/11/26 11:18:39;;;;;;;14.10;6.37;;;;;;;;;;5057421;28;20426;-76
2022/11/26 11:21:06;;;;;;;6.23;5.17;;;;;;;;;;5074355;28;20509;-76
2022/11/26 11:23:35;;;;;;;6.80;5.57;;;;;;;;;;5062821;28;20944;-76
2022/11/26 11:26:04;;;;;;;9.30;5.40;;;;;;;;;;5050411;28;20450;-77
2022/11/26 11:28:32;;;;;;;9.50;5.27;;;;;;;;;;5050453;28;20481;-76
2022/11/26 11:31:02;;;;;;;5.00;4.50;;;;;;;;;;5050362;28;20784;-77
2022/11/26 11:33:30;;;;;;;7.10;4.33;;;;;;;;;;5049694;28;20591;-77
2022/11/26 11:36:01;;;;;;;9.70;4.77;;;;;;;;;;5050365;28;20449;-76
2022/11/26 11:38:29;;;;;;;7.40;4.90;;;;;;;;;;5050225;28;20444;-77
2022/11/26 11:40:57;;;;;;;6.00;5.10;;;;;;;;;;5050785;28;20829;-76
2022/11/26 11:43:25;;;;;;;10.03;5.60;;;;;;;;;;5050265;28;20445;-77
2022/11/26 11:45:59;;;;;;;7.20;6.37;;;;;;;;;;5050597;28;20540;-77
2022/11/26 11:48:32;;;;;;;9.10;6.90;;;;;;;;;;5050177;28;20479;-77
2022/11/26 11:51:05;;;;;;;8.73;6.50;;;;;;;;;;5049978;28;20434;-77
2022/11/26 11:53:35;;;;;;;10.03;6.80;;;;;;;;;;5050224;28;20804;-78
2022/11/26 11:56:10;;;;;;;9.47;5.90;;;;;;;;;;5050763;28;20438;-77
2022/11/26 11:58:43;;;;;;;10.57;6.00;;;;;;;;;;5050123;28;20433;-77
2022/11/26 12:01:18;;;;;;;7.47;5.57;;;;;;;;;;5050016;28;20444;-76
2022/11/26 12:03:59;;;;;;;8.57;5.70;;;;;;;;;;5049555;28;20437;-76
2022/11/26 12:06:33;;;;;;;10.07;6.10;;;;;;;;;;5049742;28;20944;-76
2022/11/26 12:09:07;;;;;;;7.53;5.37;;;;;;;;;;5049576;28;20489;-76
2022/11/26 12:11:40;;;;;;;10.67;5.40;;;;;;;;;;5049679;28;20518;-77
2022/11/26 12:14:12;;;;;;;10.87;5.53;;;;;;;;;;5061735;28;20468;-78
2022/11/26 12:16:41;;;;;;;12.23;6.00;;;;;;;;;;5070132;28;20435;-77
2022/11/26 12:19:12;;;;;;;9.93;6.07;;;;;;;;;;5069654;28;20944;-77
2022/11/26 12:21:41;;;;;;;6.50;4.90;;;;;;;;;;5069964;28;20468;-77
2022/11/26 12:24:10;;;;;;;13.10;5.80;;;;;;;;;;5069330;28;20560;-77
2022/11/26 12:26:39;;;;;;;10.60;5.67;;;;;;;;;;5071869;28;20441;-76
2022/11/26 12:29:07;;;;;;;8.10;4.97;;;;;;;;;;5073194;28;20510;-76
2022/11/26 12:31:36;;;;;;;7.93;5.17;;;;;;;;;;5073045;28;20812;-76
2022/11/26 12:34:06;;;;;;;12.00;5.00;;;;;;;;;;5072452;28;20465;-76
2022/11/26 12:36:37;;;;;;;8.40;5.63;;;;;;;;;;5072940;28;20445;-77
2022/11/26 12:39:06;;;;;;;7.33;5.20;;;;;;;;;;5073226;28;20441;-77
2022/11/26 12:41:37;;;;;;;9.70;5.60;;;;;;;;;;5073074;28;20917;-77
2022/11/26 12:44:06;;;;;;;11.10;6.57;;;;;;;;;;5072560;28;20464;-77
2022/11/26 12:46:35;;;;;;;8.70;5.13;;;;;;;;;;5072937;28;20444;-75
2022/11/26 12:49:07;;;;;;;11.50;4.80;;;;;;;;;;5073225;28;20476;-77
2022/11/26 12:51:39;;;;;;;7.60;4.50;;;;;;;;;;5072495;28;20524;-76
2022/11/26 12:54:10;;;;;;;9.50;4.40;;;;;;;;;;5072102;28;20469;-77
2022/11/26 12:56:40;;;;;;;6.13;4.50;;;;;;;;;;5072696;28;20452;-77
2022/11/26 12:59:11;;;;;;;8.63;4.40;;;;;;;;;;5072414;28;20458;-78
2022/11/26 13:01:38;;;;;;;13.07;5.10;;;;;;;;;;5072432;28;20444;-77
2022/11/26 13:04:05;;;;;;;6.83;5.07;;;;;;;;;;5071783;28;20465;-77
2022/11/26 13:06:47;;;;;;;6.50;4.80;;;;;;;;;;5072303;28;20563;-77
2022/11/26 13:09:23;;;;;;;10.87;4.90;;;;;;;;;;5072571;28;20468;-76
2022/11/26 13:11:55;;;;;;;7.77;5.23;;;;;;;;;;5072628;28;20451;-76
2022/11/26 13:14:27;;;;;;;9.80;5.20;;;;;;;;;;5057103;28;20499;-77
2022/11/26 13:16:57;;;;;;;7.70;5.20;;;;;;;;;;5051889;28;20446;-76
2022/11/26 13:19:28;;;;;;;11.23;5.73;;;;;;;;;;5051824;28;20452;-78
2022/11/26 13:22:05;;;;;;;8.43;5.50;;;;;;;;;;5051803;28;20512;-77
2022/11/26 13:24:37;;;;;;;7.27;5.80;;;;;;;;;;5050997;28;20472;-77
2022/11/26 13:27:12;;;;;;;9.97;5.70;;;;;;;;;;5052953;28;20460;-76
2022/11/26 13:29:50;;;;;;;9.33;5.50;;;;;;;;;;5052432;28;20488;-77
2022/11/26 13:32:39;;;;;;;14.17;5.53;;;;;;;;;;5052961;28;20450;-76
2022/11/26 13:35:14;;;;;;;9.53;5.60;;;;;;;;;;5053465;28;20466;-77
2022/11/26 13:37:47;;;;;;;10.50;5.77;;;;;;;;;;5052854;28;20445;-76
2022/11/26 13:40:29;;;;;;;9.00;5.17;;;;;;;;;;5052101;28;20446;-76
2022/11/26 13:43:08;;;;;;;12.40;7.50;;;;;;;;;;5051199;28;20528;-77
2022/11/26 13:45:58;;;;;;;13.03;7.80;;;;;;;;;;5051866;28;20465;-77
2022/11/26 13:48:28;;;;;;;15.10;6.60;;;;;;;;;;5041682;28;20485;-77
2022/11/26 13:50:58;;;;;;;9.20;5.90;;;;;;;;;;5051777;28;20456;-77
2022/11/26 13:53:28;;;;;;;7.20;5.50;;;;;;;;;;5050801;28;20437;-76
2022/11/26 13:55:58;;;;;;;12.60;6.43;;;;;;;;;;5050813;28;20453;-77
2022/11/26 13:58:27;;;;;;;8.77;5.50;;;;;;;;;;5051561;28;20448;-76
2022/11/26 14:00:54;;;;;;;11.23;5.93;;;;;;;;;;5051206;28;20449;-76
2022/11/26 14:03:40;;;;;;;6.07;5.47;;;;;;;;;;5050372;28;20438;-76
2022/11/26 14:06:07;;;;;;;8.37;5.63;;;;;;;;;;5051122;28;20465;-77
2022/11/26 14:08:37;;;;;;;10.43;5.90;;;;;;;;;;5051249;28;20480;-77
2022/11/26 14:11:04;;;;;;;11.43;5.37;;;;;;;;;;5051331;28;20441;-77
2022/11/26 14:13:31;;;;;;;7.37;5.13;;;;;;;;;;5057378;28;20817;-76
2022/11/26 14:16:00;;;;;;;7.17;5.80;;;;;;;;;;5070604;28;20448;-76
2022/11/26 14:18:46;;;;;;;12.63;5.83;;;;;;;;;;5070773;28;20443;-77
2022/11/26 14:21:13;;;;;;;9.20;5.77;;;;;;;;;;5070339;28;20448;-76
2022/11/26 14:23:46;;;;;;;9.03;5.50;;;;;;;;;;5069900;28;20982;-76
2022/11/26 14:26:16;;;;;;;9.27;5.60;;;;;;;;;;5070779;28;20498;-77
2022/11/26 14:28:43;;;;;;;8.40;5.90;;;;;;;;;;5070752;28;20476;-76
2022/11/26 14:31:14;;;;;;;8.33;5.90;;;;;;;;;;5070451;28;20936;-76
2022/11/26 14:33:43;;;;;;;9.20;5.30;;;;;;;;;;5070134;28;20448;-77
2022/11/26 14:36:19;;;;;;;9.50;6.10;;;;;;;;;;5070538;28;20445;-76
2022/11/26 14:39:03;;;;;;;10.27;6.53;;;;;;;;;;5072315;28;20459;-77
2022/11/26 14:41:33;;;;;;;9.37;6.43;;;;;;;;;;5072818;28;20433;-76
2022/11/26 14:44:05;;;;;;;8.40;6.13;;;;;;;;;;5070785;28;20853;-76
2022/11/26 14:46:33;;;;;;;10.00;5.93;;;;;;;;;;5070459;28;20449;-77